createdAt,value
2022-09-03T00:00:06.111Z,97631.63
2022-09-03T00:03:33.438Z,97636.75
2022-09-03T00:06:17.731Z,97636.15
2022-09-03T00:09:06.914Z,97633.42
2022-09-03T00:12:18.144Z,97634.62
2022-09-03T00:14:59.401Z,97639.40
2022-09-03T00:17:36.324Z,97640.73
2022-09-03T00:20:17.650Z,97640.73
2022-09-03T00:22:50.326Z,97636.60
2022-09-03T00:25:25.152Z,97633.39
2022-09-03T00:27:58.889Z,97633.52
2022-09-03T00:30:29.177Z,97634.02
2022-09-03T00:33:07.130Z,97632.04
2022-09-03T00:35:41.627Z,97631.86
2022-09-03T00:38:09.629Z,97631.29
2022-09-03T00:40:58.599Z,97633.70
2022-09-03T00:43:57.296Z,97635.24
2022-09-03T00:46:40.307Z,97637.63
2022-09-03T00:49:26.327Z,97636.16
2022-09-03T00:52:13.397Z,97634.34
2022-09-03T00:54:47.226Z,97630.06
2022-09-03T00:57:30.863Z,97628.50
2022-09-03T01:00:09.670Z,97628.86
2022-09-03T01:02:47.445Z,97626.77
2022-09-03T01:05:40.486Z,97631.13
2022-09-03T01:08:26.796Z,97639.04
2022-09-03T01:11:12.034Z,97636.27
2022-09-03T01:13:47.967Z,97636.90
2022-09-03T01:16:28.150Z,97633.36
2022-09-03T01:19:04.146Z,97638.25
2022-09-03T01:21:53.143Z,97641.30
2022-09-03T01:24:49.817Z,97644.09
2022-09-03T01:27:32.818Z,97644.27
2022-09-03T01:30:00.720Z,97650.03
2022-09-03T01:32:40.682Z,97649.55
2022-09-03T01:35:28.210Z,97649.83
2022-09-03T01:38:14.227Z,97648.48
2022-09-03T01:41:26.147Z,97648.07
2022-09-03T01:44:00.394Z,97650.37
2022-09-03T01:46:41.655Z,97651.54
2022-09-03T01:49:12.593Z,97650.04
2022-09-03T01:51:41.614Z,97648.90
2022-09-03T01:54:20.723Z,97646.57
2022-09-03T01:57:35.305Z,97644.73
2022-09-03T02:00:14.802Z,97646.30
2022-09-03T02:02:48.099Z,97648.44
2022-09-03T02:05:29.274Z,97652.34
2022-09-03T02:08:01.444Z,97652.84
2022-09-03T02:10:32.526Z,97654.91
2022-09-03T02:13:31.915Z,97660.69
2022-09-03T02:16:06.966Z,97659.73
2022-09-03T02:18:46.689Z,97656.89
2022-09-03T02:21:21.780Z,97662.80
2022-09-03T02:23:50.714Z,97662.98
2022-09-03T02:26:23.021Z,97667.55
2022-09-03T02:28:54.021Z,97663.74
2022-09-03T02:31:22.044Z,97661.75
2022-09-03T02:33:51.647Z,97663.31
2022-09-03T02:36:27.571Z,97665.68
2022-09-03T02:38:55.731Z,97664.52
2022-09-03T02:41:24.252Z,97667.63
2022-09-03T02:43:54.160Z,97663.88
2022-09-03T02:46:27.273Z,97667.20
2022-09-03T02:48:56.099Z,97665.79
2022-09-03T02:51:24.295Z,97661.61
2022-09-03T02:53:52.401Z,97666.33
2022-09-03T02:56:20.244Z,97673.66
2022-09-03T02:58:48.187Z,97675.00
2022-09-03T03:01:23.983Z,97679.17
2022-09-03T03:03:53.207Z,97680.05
2022-09-03T03:06:21.558Z,97681.44
2022-09-03T03:08:50.610Z,97673.84
2022-09-03T03:11:20.008Z,97672.42
2022-09-03T03:13:48.299Z,97673.69
2022-09-03T03:16:17.562Z,97674.45
2022-09-03T03:18:48.751Z,97677.78
2022-09-03T03:21:18.439Z,97678.60
2022-09-03T03:23:46.519Z,97677.04
2022-09-03T03:26:19.713Z,97676.57
2022-09-03T03:28:49.034Z,97679.16
2022-09-03T03:31:22.821Z,97679.63
2022-09-03T03:33:58.927Z,97681.39
2022-09-03T03:36:29.833Z,97679.54
2022-09-03T03:38:59.640Z,97678.48
2022-09-03T03:41:31.622Z,97677.33
2022-09-03T03:44:02.442Z,97676.74
2022-09-03T03:46:39.195Z,97677.55
2022-09-03T03:49:08.613Z,97678.42
2022-09-03T03:51:38.101Z,97678.05
2022-09-03T03:54:06.073Z,97677.64
2022-09-03T03:56:34.891Z,97676.85
2022-09-03T03:59:03.745Z,97677.72
2022-09-03T04:01:31.775Z,97679.41
2022-09-03T04:04:00.582Z,97677.85
2022-09-03T04:06:29.650Z,97673.77
2022-09-03T04:08:57.510Z,97673.24
2022-09-03T04:11:26.183Z,97671.48
2022-09-03T04:13:55.640Z,97670.36
2022-09-03T04:16:27.680Z,97667.38
2022-09-03T04:18:56.843Z,97669.27
2022-09-03T04:21:28.676Z,97670.11
2022-09-03T04:23:58.169Z,97675.83
2022-09-03T04:26:31.795Z,97677.69
2022-09-03T04:29:02.435Z,97681.95
2022-09-03T04:31:31.770Z,97686.63
2022-09-03T04:34:00.186Z,97690.05
2022-09-03T04:36:31.016Z,97689.24
2022-09-03T04:39:00.728Z,97686.42
2022-09-03T04:41:30.763Z,97688.50
2022-09-03T04:44:00.732Z,97691.34
2022-09-03T04:46:35.557Z,97692.21
2022-09-03T04:49:03.579Z,97686.42
2022-09-03T04:51:31.974Z,97682.16
2022-09-03T04:54:02.453Z,97684.02
2022-09-03T04:56:33.121Z,97687.57
2022-09-03T04:59:09.449Z,97692.39
2022-09-03T05:01:44.130Z,97694.84
2022-09-03T05:04:11.983Z,97700.06
2022-09-03T05:06:39.878Z,97698.51
2022-09-03T05:09:08.135Z,97703.36
2022-09-03T05:11:36.857Z,97703.15
2022-09-03T05:14:06.110Z,97704.62
2022-09-03T05:16:34.152Z,97704.79
2022-09-03T05:19:06.624Z,97700.02
2022-09-03T05:21:38.330Z,97700.02
2022-09-03T05:24:06.434Z,97701.52
2022-09-03T05:26:38.406Z,97705.21
2022-09-03T05:29:07.998Z,97712.82
2022-09-03T05:31:40.028Z,97714.94
2022-09-03T05:34:10.745Z,97720.33
2022-09-03T05:36:49.290Z,97721.87
2022-09-03T05:39:17.244Z,97720.46
2022-09-03T05:41:45.854Z,97721.02
2022-09-03T05:44:16.773Z,97723.70
2022-09-03T05:46:44.705Z,97729.51
2022-09-03T05:49:12.690Z,97735.16
2022-09-03T05:51:40.683Z,97736.15
2022-09-03T05:54:09.385Z,97739.58
2022-09-03T05:56:40.392Z,97740.05
2022-09-03T05:59:10.800Z,97732.80
2022-09-03T06:01:44.020Z,97732.39
2022-09-03T06:04:19.541Z,97735.59
2022-09-03T06:06:48.609Z,97741.02
2022-09-03T06:09:23.513Z,97743.58
2022-09-03T06:11:57.364Z,97747.27
2022-09-03T06:14:26.858Z,97750.55
2022-09-03T06:16:56.495Z,97751.95
2022-09-03T06:19:24.478Z,97753.05
2022-09-03T06:21:52.375Z,97755.81
2022-09-03T06:24:28.334Z,97758.98
2022-09-03T06:26:57.028Z,97755.48
2022-09-03T06:29:25.945Z,97755.39
2022-09-03T06:31:53.920Z,97754.52
2022-09-03T06:34:22.892Z,97758.06
2022-09-03T06:36:51.754Z,97766.08
2022-09-03T06:39:22.723Z,97770.33
2022-09-03T06:41:53.365Z,97769.16
2022-09-03T06:44:28.887Z,97766.55
2022-09-03T06:47:01.066Z,97765.04
2022-09-03T06:49:28.987Z,97763.17
2022-09-03T06:51:56.970Z,97763.20
2022-09-03T06:54:25.339Z,97765.77
2022-09-03T06:56:53.207Z,97765.30
2022-09-03T06:59:21.285Z,97762.09
2022-09-03T07:01:49.347Z,97766.67
2022-09-03T07:04:20.149Z,97766.44
2022-09-03T07:06:48.503Z,97766.79
2022-09-03T07:09:19.357Z,97772.65
2022-09-03T07:11:49.585Z,97775.05
2022-09-03T07:14:19.901Z,97778.13
2022-09-03T07:16:50.770Z,97781.20
2022-09-03T07:19:20.031Z,97781.13
2022-09-03T07:21:50.415Z,97780.37
2022-09-03T07:24:22.392Z,97784.92
2022-09-03T07:26:50.847Z,97790.98
2022-09-03T07:29:22.236Z,97792.83
2022-09-03T07:31:52.117Z,97792.52
2022-09-03T07:34:25.534Z,97796.29
2022-09-03T07:36:55.002Z,97802.48
2022-09-03T07:39:23.167Z,97804.70
2022-09-03T07:41:51.358Z,97802.38
2022-09-03T07:44:20.440Z,97803.09
2022-09-03T07:46:51.626Z,97802.17
2022-09-03T07:49:22.149Z,97801.20
2022-09-03T07:51:52.546Z,97805.35
2022-09-03T07:54:22.093Z,97808.70
2022-09-03T07:56:50.021Z,97812.16
2022-09-03T07:59:19.305Z,97808.81
2022-09-03T08:01:47.127Z,97804.12
2022-09-03T08:04:15.049Z,97804.83
2022-09-03T08:06:43.108Z,97806.05
2022-09-03T08:09:14.143Z,97803.63
2022-09-03T08:11:43.711Z,97801.19
2022-09-03T08:14:14.331Z,97804.00
2022-09-03T08:16:47.429Z,97807.38
2022-09-03T08:19:18.577Z,97810.09
2022-09-03T08:21:47.249Z,97813.38
2022-09-03T08:24:21.441Z,97810.60
2022-09-03T08:26:52.229Z,97804.26
2022-09-03T08:29:21.673Z,97802.65
2022-09-03T08:31:49.840Z,97799.43
2022-09-03T08:34:19.539Z,97796.52
2022-09-03T08:36:47.680Z,97799.61
2022-09-03T08:39:16.776Z,97799.78
2022-09-03T08:41:50.963Z,97802.81
2022-09-03T08:44:47.440Z,97799.52
2022-09-03T08:47:27.420Z,97799.86
2022-09-03T08:50:00.312Z,97805.09
2022-09-03T08:52:39.307Z,97808.70
2022-09-03T08:55:34.420Z,97806.94
2022-09-03T08:58:14.451Z,97814.44
2022-09-03T09:00:51.240Z,97815.63
2022-09-03T09:03:35.109Z,97819.73
2022-09-03T09:06:17.137Z,97823.38
2022-09-03T09:09:03.045Z,97828.24
2022-09-03T09:11:33.798Z,97835.23
2022-09-03T09:14:08.971Z,97831.88
2022-09-03T09:16:46.719Z,97834.41
2022-09-03T09:19:22.338Z,97831.30
2022-09-03T09:21:59.482Z,97833.75
2022-09-03T09:24:56.068Z,97833.67
2022-09-03T09:27:28.802Z,97834.55
2022-09-03T09:30:05.347Z,97837.88
2022-09-03T09:32:36.515Z,97840.35
2022-09-03T09:35:11.242Z,97839.32
2022-09-03T09:38:00.458Z,97833.27
2022-09-03T09:40:41.449Z,97831.27
2022-09-03T09:43:22.395Z,97835.45
2022-09-03T09:45:53.572Z,97841.80
2022-09-03T09:48:31.646Z,97841.65
2022-09-03T09:51:13.458Z,97846.20
2022-09-03T09:53:45.262Z,97843.11
2022-09-03T09:56:25.302Z,97844.90
2022-09-03T09:59:11.979Z,97840.81
2022-09-03T10:01:42.701Z,97841.58
2022-09-03T10:04:40.689Z,97840.58
2022-09-03T10:07:36.003Z,97842.35
2022-09-03T10:10:18.419Z,97840.54
2022-09-03T10:12:59.620Z,97844.27
2022-09-03T10:15:42.703Z,97837.30
2022-09-03T10:18:50.268Z,97837.59
2022-09-03T10:21:38.513Z,97835.13
2022-09-03T10:24:24.963Z,97824.27
2022-09-03T10:26:53.026Z,97818.36
2022-09-03T10:29:29.591Z,97819.23
2022-09-03T10:32:25.702Z,97817.69
2022-09-03T10:35:00.436Z,97818.38
2022-09-03T10:38:06.137Z,97809.41
2022-09-03T10:40:45.451Z,97805.16
2022-09-03T10:43:19.469Z,97796.73
2022-09-03T10:46:09.404Z,97782.20
2022-09-03T10:48:46.422Z,97773.74
2022-09-03T10:51:31.709Z,97768.05
2022-09-03T10:54:36.382Z,97761.22
2022-09-03T10:57:30.009Z,97762.14
2022-09-03T11:00:13.246Z,97748.86
2022-09-03T11:03:10.550Z,97741.48
2022-09-03T11:06:12.384Z,97737.37
2022-09-03T11:09:04.425Z,97736.14
2022-09-03T11:11:51.455Z,97733.34
2022-09-03T11:14:50.803Z,97742.66
2022-09-03T11:17:34.851Z,97738.75
2022-09-03T11:20:23.863Z,97733.59
2022-09-03T11:23:00.380Z,97740.35
2022-09-03T11:25:38.400Z,97742.16
2022-09-03T11:28:28.664Z,97752.75
2022-09-03T11:31:25.575Z,97768.27
2022-09-03T11:34:19.622Z,97764.52
2022-09-03T11:37:04.735Z,97763.24
2022-09-03T11:39:32.643Z,97738.11
2022-09-03T11:42:08.548Z,97748.05
2022-09-03T11:44:51.016Z,97768.45
2022-09-03T11:47:19.398Z,97763.88
2022-09-03T11:49:51.476Z,97732.05
2022-09-03T11:52:40.677Z,97726.98
2022-09-03T11:55:09.820Z,97722.88
2022-09-03T11:57:44.001Z,97723.99
2022-09-03T12:00:14.756Z,97723.88
2022-09-03T12:02:58.134Z,97726.49
2022-09-03T12:05:47.706Z,97745.99
2022-09-03T12:08:15.507Z,97750.59
2022-09-03T12:10:46.556Z,97774.83
2022-09-03T12:13:42.812Z,97783.71
2022-09-03T12:16:49.209Z,97781.10
2022-09-03T12:19:22.789Z,97756.09
2022-09-03T12:21:50.850Z,97758.71
2022-09-03T12:24:23.493Z,97754.73
2022-09-03T12:26:51.873Z,97773.23
2022-09-03T12:29:27.575Z,97771.74
2022-09-03T12:32:06.214Z,97763.48
2022-09-03T12:34:34.608Z,97772.66
2022-09-03T12:37:02.970Z,97781.83
2022-09-03T12:42:32.857Z,97766.51
2022-09-03T12:45:10.528Z,97778.49
2022-09-03T12:47:43.356Z,97770.48
2022-09-03T12:50:21.478Z,97729.09
2022-09-03T12:52:58.903Z,97737.92
2022-09-03T12:55:41.464Z,97723.16
2022-09-03T12:58:48.049Z,97730.85
2022-09-03T13:01:31.600Z,97761.31
2022-09-03T13:04:08.127Z,97769.85
2022-09-03T13:06:50.067Z,97775.08
2022-09-03T13:09:24.085Z,97771.88
2022-09-03T13:11:52.802Z,97753.71
2022-09-03T13:14:20.906Z,97755.60
2022-09-03T13:17:16.651Z,97728.23
2022-09-03T13:20:13.085Z,97741.86
2022-09-03T13:23:01.120Z,97762.45
2022-09-03T13:25:49.008Z,97750.40
2022-09-03T13:28:45.117Z,97737.61
2022-09-03T13:31:31.580Z,97733.39
2022-09-03T13:34:02.657Z,97721.77
2022-09-03T13:36:38.971Z,97736.40
2022-09-03T13:39:33.578Z,97759.79
2022-09-03T13:42:24.275Z,97768.92
2022-09-03T13:45:26.813Z,97778.26
2022-09-03T13:48:26.272Z,97771.25
2022-09-03T13:51:20.434Z,97774.52
2022-09-03T13:54:47.584Z,97765.46
2022-09-03T13:57:44.320Z,97769.59
2022-09-03T14:00:24.543Z,97770.80
2022-09-03T14:03:25.825Z,97784.96
2022-09-03T14:05:56.939Z,97795.35
2022-09-03T14:08:30.821Z,97795.56
2022-09-03T14:11:32.881Z,97796.13
2022-09-03T14:14:13.908Z,97792.08
2022-09-03T14:17:02.861Z,97776.09
2022-09-03T14:19:58.474Z,97778.09
2022-09-03T14:22:34.933Z,97777.27
2022-09-03T14:25:14.989Z,97771.34
2022-09-03T14:27:42.911Z,97766.97
2022-09-03T14:30:16.837Z,97776.29
2022-09-03T14:32:55.184Z,97774.26
2022-09-03T14:35:31.084Z,97772.36
2022-09-03T14:38:23.875Z,97756.23
2022-09-03T14:41:05.070Z,97751.71
2022-09-03T14:43:52.664Z,97745.77
2022-09-03T14:46:28.653Z,97747.16
2022-09-03T14:49:14.775Z,97752.13
2022-09-03T14:52:10.766Z,97741.46
2022-09-03T14:55:14.970Z,97748.14
2022-09-03T14:58:24.082Z,97752.14
2022-09-03T15:00:56.416Z,97761.81
2022-09-03T15:03:30.008Z,97772.42
2022-09-03T15:06:19.725Z,97779.73
2022-09-03T15:09:17.405Z,97779.13
2022-09-03T15:12:03.141Z,97784.77
2022-09-03T15:14:43.689Z,97771.85
2022-09-03T15:17:43.601Z,97768.81
2022-09-03T15:20:50.929Z,97773.84
2022-09-03T15:23:40.544Z,97772.61
2022-09-03T15:26:27.071Z,97775.08
2022-09-03T15:29:10.699Z,97773.84
2022-09-03T15:32:09.646Z,97770.65
2022-09-03T15:34:56.960Z,97766.77
2022-09-03T15:37:39.910Z,97774.77
2022-09-03T15:40:24.178Z,97777.30
2022-09-03T15:42:59.141Z,97779.00
2022-09-03T15:45:38.837Z,97778.38
2022-09-03T15:48:31.179Z,97771.89
2022-09-03T15:51:10.984Z,97770.84
2022-09-03T15:53:55.094Z,97772.25
2022-09-03T15:56:29.086Z,97771.08
2022-09-03T15:59:21.369Z,97774.33
2022-09-03T16:02:04.301Z,97779.80
2022-09-03T16:05:04.512Z,97785.02
2022-09-03T16:07:38.437Z,97790.66
2022-09-03T16:10:30.802Z,97789.70
2022-09-03T16:13:41.010Z,97794.86
2022-09-03T16:16:15.834Z,97798.92
2022-09-03T16:18:55.952Z,97799.73
2022-09-03T16:21:47.458Z,97799.14
2022-09-03T16:24:24.958Z,97796.95
2022-09-03T16:27:28.479Z,97796.48
2022-09-03T16:30:18.390Z,97796.02
2022-09-03T16:32:58.380Z,97796.27
2022-09-03T16:36:07.133Z,97794.12
2022-09-03T16:38:46.950Z,97795.07
2022-09-03T16:41:26.931Z,97795.46
2022-09-03T16:44:13.429Z,97799.46
2022-09-03T16:46:53.798Z,97798.48
2022-09-03T16:49:50.602Z,97796.88
2022-09-03T16:52:38.978Z,97803.95
2022-09-03T16:55:22.753Z,97809.02
2022-09-03T16:58:10.088Z,97815.29
2022-09-03T17:00:49.658Z,97817.55
2022-09-03T17:03:57.273Z,97823.86
2022-09-03T17:06:25.056Z,97826.82
2022-09-03T17:09:47.094Z,97829.13
2022-09-03T17:12:30.385Z,97832.02
2022-09-03T17:15:11.700Z,97826.70
2022-09-03T17:18:41.225Z,97829.11
2022-09-03T17:21:27.034Z,97835.21
2022-09-03T17:24:23.528Z,97838.69
2022-09-03T17:27:11.557Z,97839.38
2022-09-03T17:30:04.071Z,97840.39
2022-09-03T17:33:06.075Z,97842.64
2022-09-03T17:35:38.187Z,97844.90
2022-09-03T17:38:43.898Z,97848.41
2022-09-03T17:41:29.976Z,97852.96
2022-09-03T17:44:41.896Z,97861.08
2022-09-03T17:47:25.102Z,97863.34
2022-09-03T17:50:16.003Z,97865.71
2022-09-03T17:52:43.941Z,97868.52
2022-09-03T17:55:31.592Z,97870.78
2022-09-03T17:58:17.173Z,97874.52
2022-09-03T18:01:08.039Z,97873.86
2022-09-03T18:04:05.174Z,97875.58
2022-09-03T18:06:51.099Z,97870.50
2022-09-03T18:09:29.094Z,97869.27
2022-09-03T18:12:23.189Z,97872.22
2022-09-03T18:14:59.724Z,97875.13
2022-09-03T18:17:49.844Z,97877.66
2022-09-03T18:20:36.274Z,97876.95
2022-09-03T18:23:44.567Z,97879.69
2022-09-03T18:26:43.455Z,97882.29
2022-09-03T18:29:54.155Z,97881.13
2022-09-03T18:32:40.885Z,97881.32
2022-09-03T18:35:28.467Z,97879.80
2022-09-03T18:38:14.838Z,97880.11
2022-09-03T18:41:30.047Z,97877.17
2022-09-03T18:44:54.770Z,97880.27
2022-09-03T18:48:06.034Z,97888.17
2022-09-03T18:51:18.080Z,97892.21
2022-09-03T18:54:04.422Z,97892.09
2022-09-03T18:57:08.919Z,97893.46
2022-09-03T19:00:19.745Z,97896.50
2022-09-03T19:03:19.931Z,97897.43
2022-09-03T19:06:12.524Z,97898.52
2022-09-03T19:09:22.193Z,97895.58
2022-09-03T19:12:14.842Z,97900.45
2022-09-03T19:15:16.790Z,97905.25
2022-09-03T19:18:27.594Z,97909.45
2022-09-03T19:21:18.384Z,97910.33
2022-09-03T19:24:04.665Z,97913.23
2022-09-03T19:28:00.205Z,97914.21
2022-09-03T19:31:01.181Z,97913.04
2022-09-03T19:34:02.344Z,97917.67
2022-09-03T19:36:51.665Z,97920.96
2022-09-03T19:39:53.271Z,97922.42
2022-09-03T19:42:55.210Z,97920.82
2022-09-03T19:45:55.586Z,97920.88
2022-09-03T19:49:22.204Z,97924.33
2022-09-03T19:52:11.366Z,97926.92
2022-09-03T19:54:59.038Z,97929.33
2022-09-03T19:57:48.428Z,97929.52
2022-09-03T20:00:34.633Z,97934.56
2022-09-03T20:03:23.657Z,97934.52
2022-09-03T20:06:11.594Z,97934.46
2022-09-03T20:08:58.115Z,97932.95
2022-09-03T20:11:30.484Z,97936.27
2022-09-03T20:14:14.941Z,97936.80
2022-09-03T20:17:06.480Z,97936.58
2022-09-03T20:19:48.767Z,97939.44
2022-09-03T20:22:55.478Z,97939.30
2022-09-03T20:25:44.966Z,97936.22
2022-09-03T20:28:34.238Z,97940.48
2022-09-03T20:31:15.716Z,97945.95
2022-09-03T20:34:22.034Z,97947.48
2022-09-03T20:37:01.843Z,97950.77
2022-09-03T20:39:38.244Z,97954.11
2022-09-03T20:42:12.067Z,97953.61
2022-09-03T20:44:48.891Z,97957.45
2022-09-03T20:48:01.243Z,97958.11
2022-09-03T20:50:43.358Z,97960.13
2022-09-03T20:53:33.259Z,97964.52
2022-09-03T20:56:16.184Z,97963.17
2022-09-03T20:58:50.025Z,97970.05
2022-09-03T21:01:30.913Z,97972.13
2022-09-03T21:04:33.867Z,97971.35
2022-09-03T21:07:29.773Z,97969.69
2022-09-03T21:10:17.058Z,97973.73
2022-09-03T21:13:11.639Z,97974.08
2022-09-03T21:15:45.495Z,97972.22
2022-09-03T21:18:33.425Z,97970.73
2022-09-03T21:21:36.018Z,97966.73
2022-09-03T21:24:31.406Z,97959.73
2022-09-03T21:27:04.575Z,97970.69
2022-09-03T21:29:44.453Z,97976.92
2022-09-03T21:32:20.309Z,97979.96
2022-09-03T21:35:06.536Z,97984.92
2022-09-03T21:37:37.399Z,97995.31
2022-09-03T21:40:08.199Z,97999.45
2022-09-03T21:42:49.391Z,98003.76
2022-09-03T21:45:29.359Z,98005.66
2022-09-03T21:48:06.875Z,98004.33
2022-09-03T21:50:53.079Z,98002.79
2022-09-03T21:53:33.366Z,98002.30
2022-09-03T21:56:13.304Z,98001.33
2022-09-03T21:59:09.553Z,98005.64
2022-09-03T22:02:01.914Z,98007.63
2022-09-03T22:04:29.813Z,98005.52
2022-09-03T22:07:15.762Z,98008.21
2022-09-03T22:10:08.268Z,98008.38
2022-09-03T22:12:45.615Z,98010.20
2022-09-03T22:15:14.969Z,98015.89
2022-09-03T22:17:57.056Z,98017.02
2022-09-03T22:20:27.883Z,98021.28
2022-09-03T22:23:21.249Z,98027.55
2022-09-03T22:26:03.356Z,98028.94
2022-09-03T22:28:56.046Z,98032.01
2022-09-03T22:31:44.953Z,98033.70
2022-09-03T22:34:32.102Z,98031.04
2022-09-03T22:37:06.812Z,98037.85
2022-09-03T22:39:41.959Z,98037.55
2022-09-03T22:42:39.073Z,98036.20
2022-09-03T22:45:28.173Z,98037.15
2022-09-03T22:48:08.405Z,98042.31
2022-09-03T22:51:01.846Z,98040.79
2022-09-03T22:53:32.801Z,98042.98
2022-09-03T22:56:20.956Z,98044.06
2022-09-03T22:58:56.711Z,98043.63
2022-09-03T23:01:45.872Z,98047.70
2022-09-03T23:04:25.281Z,98047.69
2022-09-03T23:06:59.936Z,98051.27
2022-09-03T23:09:35.203Z,98050.98
2022-09-03T23:12:10.024Z,98050.12
2022-09-03T23:14:51.601Z,98051.63
2022-09-03T23:20:21.343Z,98044.18
2022-09-03T23:22:59.959Z,98042.47
2022-09-03T23:25:42.174Z,98045.80
2022-09-03T23:28:36.817Z,98047.27
2022-09-03T23:31:20.658Z,98043.63
2022-09-03T23:33:52.257Z,98039.95
2022-09-03T23:37:01.586Z,98039.56
2022-09-03T23:40:13.517Z,98040.86
2022-09-03T23:42:59.834Z,98039.55
2022-09-03T23:45:46.109Z,98038.20
2022-09-03T23:48:40.109Z,98040.90
2022-09-03T23:51:29.367Z,98043.44
2022-09-03T23:54:10.456Z,98046.54
2022-09-03T23:57:03.320Z,98047.14
